Text Box: All records at near 07:00 local time
Kleivo 1 weather for Jan 2011
Month no. 50
Obs.
Da.
Temp. Dew Point Precip. Wind
Speed
Wind gusts Cloud cover Press. Humidity Wind dir. Sunny OPT
01.01.2011 2,2 -4,3 0,0 9,7 3,2 8 989,8 82,0 315,0   70,0 %
02.01.2011 -1,6 -4,4 0,0 0,0 4,8 0 998,9 89 NNW   52,5 %
03.01.2011 -1,5 0,6 0,0 3,2 22,5 0 999,3 88,0 180,0   52,5 %
04.01.2011 1,6 -1,2 1,0 4,8 0,0 0 984,1 90,0 157,5   52,5 %
05.01.2011 2,4 0,6 0,5 8,0 9,7 0 979,3 88,0 135,0   50,0 %
06.01.2011 0,5 -4,8 3,6 11,3 0,0 1 965,1 87,0 90,0   47,5 %
07.01.2011 -2,8 -2,4 0,0 1,6 11,3 8 978,3 89,0 180,0   70,0 %
08.01.2011 1,0 0,5 0,0 11,3 3,2 1 977,3 67,0 112,5   50,0 %
09.01.2011 2,3 0,7 1,5 22,5 16,1 3 967,5 88,0 135,0   47,5 %
10.01.2011 0,7 4,6 0,0 0,0 8,0 0 987,1 87,0     55,0 %
11.01.2011 2,1 3,6 4,1 9,7 8,0 0 982,1 90,0 135,0   47,5 %
12.01.2011 -3,4 0,9 0,0 0,0 0,0 9 987,5 90,0     72,5 %
13.01.2011 -0,7 -2,2 0,0 11,3 1,6 0 984,8 88,0 90,0   45,0 %
14.01.2011 2,1 -5,7 0,5 3,2 1,6 2 985,1 89,0 157,5   60,0 %
15.01.2011 3,3 0,5 0,5 16,1 16,1 0 983,7 83,0 112,5   47,5 %
16.01.2011 6,3 -1,9 2,0 11,3 0,0 0 978,0 89,0 135,0   52,5 %
17.01.2011 5,2 3,1 0,0 12,9 0,0 0 987,5 89,0 180,0   52,5 %
18.01.2011 2,4 2,4 3,0 0,0 0,0 0 995,9 90,0     52,5 %
19.01.2011 2,4 -2,6 3,0 0,0 1,6 1 995,9 90,0     55,0 %
20.01.2011 2,4 -2,5 3,0 0,0 0,0 4 995,9 90,0     62,5 %
21.01.2011 2,4 -6,5 3,0 0,0 1,6 10 995,9 90,0     77,5 %
22.01.2011 2,4 -3,3 3,0 0,0 0,0 6 995,9 90,0     67,5 %
23.01.2011 4,6 2,0 0,0 0,0 1,6 7 1010,8 90,0     75,0 %
24.01.2011 3,9 -1,5 0,0 0,0 9,7 1 1002,4 90,0     60,0 %
25.01.2011 -1,1 2,7 0,0 0,0 12,9 10 988,8 90,0     77,5 %
26.01.2011 0,2 3,3 0,0 1,6 9,7 0 995,6 82,0 135,0   55,0 %
27.01.2011 -5,1 2,7 0,0 3,2 4,8 10 1006,4 90,0 157,5   75,0 %
28.01.2011 -1,7 0,8 0,0 0,0 12,9 0 1008,1 89,0     52,5 %
29.01.2011 3,5 0,1 1,5 4,8 12,9 3 996,3 90,0 157,5   62,5 %
30.01.2011 0,9 0,1 0,0 3,2 0,0 0 1002,7 84,0 112,5   55,0 %
31.01.2011 4,4 2,0 4,6 8,0 4,8 1 995,3 89,0 247,5   52,5 %
Avrg/Sum 1,3 -0,4 34,8 5,1 5,8 2,7 990,4 87,6 153,9   58,2 %